Main page
METAR-TAF:

METAR-TAF

Airports :

Kapalua Airport

Lahaina, Hawaii, United States

latitude: 21-01N, longitude: 156-38W, elevation: 40 m

Current weather observation

The report was made 33 minutes ago, at 22:54 UTC
Wind 18 kt from the East/Northeast with gusts up to 26 kt
Temperature 26°C
Humidity 54%
Pressure 1019 hPa
Visibility: 16.1 km
Clear sky

METAR: PHJH 072254Z 06018G26KT 10SM CLR 26/16 A3009

Time: 13:27 (23:27 UTC)

Forecast

The report was made 5 hours and 53 minutes ago, at 17:34 UTC
Forecast valid from 07 at 18 UTC to 08 at 18 UTC
Wind 15 kt from the Northeast with gusts up to 23 kt
Visibility: 10 km
Few clouds at a height of 2500 ft
Scattered clouds at a height of 4000 ft
showers in vicinity
From 08 at 0500 UTC
Wind 10 kt from the Northeast
Visibility: 10 km
Few clouds at a height of 2500 ft
Scattered clouds at a height of 4000 ft
showers in vicinity

TAF: PHJH 071734Z 0718/0818 04015G23KT P6SM VCSH FEW025 SCT040 FM080500 04010KT P6SM VCSH FEW025 SCT040 AMD NOT SKED AFT 080400

Weather observations and forecasts of more than 4000 airports (METAR and TAF reports).

The available stations are represented by yellow and red dots on the map.

Hover mouse over dot to see the name of the station.

Then click to see weather observations and forecasts.

To change the map : click on the green buttons with a black cross to zoom in, on the green button with a dash to zoom out, or on the green arrows for adjacent maps.


METAR-TAF: